Airfield :







YOU CAN JOIN US ON...

 
LOGIN :

Register | Disclaimer

   EN    FR    IT 

 









Legend :    VFR   Marginal VFR   IFR   Intensive IFR   Very Intensive IFR
Visi :
Ceiling :
>= 8 km
>= 3000ft
5 to 8 km
1000 to 3000 ft
1500m to 5 km
500 to 1000 ft
800 to 1500m
200 to 500 ft
< 800m
< 200 ft
Symbols :   Thunderstorms  Fog  Heavy snow  Heavy precipitations  Wind > 20 kt






- Airport Elevation : 141 ft
- IATA code : YQI


CYQI - Yarmouth

CURRENT METAR :
  • 190217Z 03015KT 4SM -RA BR OVC008 OVC032 05/04 A2945 RMK SF8SC1 SC TR SLP976

EXPIRED METARs :
  • 190203Z 04015G23KT 4SM RA BR OVC009 OVC039 05/04 A2946 RMK SF8SC1 SC TR SLP978
  • 190148Z 04014G23KT 5SM +RA BR OVC008 OVC039 05/04 A2947 RMK SF8SC1 SC TR SLP981
  • 190103Z 05013G22KT 6SM SHRA BR OVC010 OVC020 05/04 A2949 RMK SF8SC1 SC TR CVCTV CLD EMBD SLP990
  • 190000Z 06018G27KT 6SM -SHRA BKN010 OVC018 05/05 A2950 RMK SF7SF1 SLP994

TAF TAF CYQI
Valid from the 19 at 00:00 until the 19 at 12:00 UTC


182339Z 1900/1912 07020G30KT P6SM -RA OVC012
TEMPO 1900/1903 3SM -RA -DZ BR OVC006
BECMG 1900/1902 03012G22KT
FM190300 03012G22KT 3SM -DZ BR OVC006
TEMPO 1903/1912 6SM BR OVC010
BECMG 1907/1909 34008KT RMK NXT FCST BY 190600Z



MET'MAP, your aeronautical weather chart ! - Copyright ORBIFLY December 2007 - Disclaimer

ORBIFLY MET'MAP TEAM :

Programming & Development : Alexandra Zaïnal
Concept & Development : Baudouin d'Aumeries
Co-Development & Prog : Marc-Olivier Méhu
Technical & hardware support : Manuel Goepfert

Contact : metmap@orbifly.com




SOURCES & CREDITS :

   NOAA